Time;durP1;ratioP1;P1;durP2;ratioP2;P2;SDS_P1;SDS_P2;PMS_P1;PMS_P2;Temp;Humidity;BMP_temperature;BMP_pressure;BME280_temperature;BME280_humidity;BME280_pressure;Samples;Min_cycle;Max_cycle;Signal;HPM_P1;HPM_P2
2024/02/13 00:02:09;;;;;;;7.88;4.80;;;;;;;-1.17;100.00;100433.94;5110868;28;20093;-68
2024/02/13 00:04:35;;;;;;;7.50;5.20;;;;;;;-1.26;100.00;100442.63;5109648;28;20024;-69
2024/02/13 00:07:00;;;;;;;11.20;5.93;;;;;;;-1.21;100.00;100443.91;5093404;28;20043;-69
2024/02/13 00:09:25;;;;;;;9.32;5.18;;;;;;;-1.27;100.00;100435.69;5110217;28;20023;-69
2024/02/13 00:11:51;;;;;;;9.20;6.00;;;;;;;-1.33;100.00;100444.97;5111130;28;20047;-69
2024/02/13 00:14:18;;;;;;;7.55;4.95;;;;;;;-1.27;100.00;100460.28;5110737;28;20028;-69
2024/02/13 00:16:44;;;;;;;7.40;4.78;;;;;;;-1.26;100.00;100459.34;5109232;28;20016;-69
2024/02/13 00:19:11;;;;;;;8.65;5.28;;;;;;;-1.27;100.00;100459.44;5109736;28;20039;-68
2024/02/13 00:21:37;;;;;;;9.55;5.47;;;;;;;-1.31;100.00;100456.25;5109866;28;20048;-69
2024/02/13 00:24:03;;;;;;;8.50;5.00;;;;;;;-1.28;100.00;100457.78;5109198;28;20029;-68
2024/02/13 00:26:29;;;;;;;8.30;5.03;;;;;;;-1.30;100.00;100459.72;5087015;28;20024;-69
2024/02/13 00:28:54;;;;;;;8.73;5.28;;;;;;;-1.31;100.00;100455.41;5103850;28;20024;-69
2024/02/13 00:31:20;;;;;;;8.13;4.70;;;;;;;-1.33;100.00;100452.88;5102410;28;20024;-69
2024/02/13 00:33:48;;;;;;;10.07;5.65;;;;;;;-1.45;100.00;100433.66;5082019;28;20024;-69
2024/02/13 00:36:15;;;;;;;9.77;5.30;;;;;;;-1.36;100.00;100449.66;5100349;28;20051;-72
2024/02/13 00:38:43;;;;;;;7.25;4.95;;;;;;;-1.33;100.00;100452.06;5105378;28;20119;-69
2024/02/13 00:41:09;;;;;;;8.20;5.03;;;;;;;-1.36;100.00;100449.66;5104914;28;20024;-69
2024/02/13 00:43:35;;;;;;;7.25;4.60;;;;;;;-1.53;100.00;100417.63;5105246;28;20055;-68
2024/02/13 00:46:01;;;;;;;8.88;5.13;;;;;;;-1.46;100.00;100445.19;5106035;28;20028;-69
2024/02/13 00:48:27;;;;;;;7.03;5.03;;;;;;;-1.42;100.00;100454.53;5105177;28;20073;-68
2024/02/13 00:50:52;;;;;;;7.68;4.63;;;;;;;-1.41;100.00;100460.63;5104861;28;20028;-69
2024/02/13 00:53:18;;;;;;;8.55;4.53;;;;;;;-1.39;100.00;100456.06;5105971;28;20018;-69
2024/02/13 00:55:44;;;;;;;7.07;4.72;;;;;;;-1.47;100.00;100451.41;5105805;28;20028;-69
2024/02/13 00:58:10;;;;;;;7.53;4.95;;;;;;;-1.51;100.00;100447.38;5107571;28;20490;-68
2024/02/13 01:00:35;;;;;;;7.53;4.65;;;;;;;-1.47;100.00;100464.63;5106783;28;20035;-69
2024/02/13 01:03:05;;;;;;;7.90;4.63;;;;;;;-1.50;100.00;100462.25;5105333;28;20032;-69
2024/02/13 01:05:31;;;;;;;8.40;4.82;;;;;;;-1.49;100.00;100457.78;5105362;28;20056;-69
2024/02/13 01:07:57;;;;;;;7.13;4.50;;;;;;;-1.49;100.00;100460.44;5104629;28;20020;-69
2024/02/13 01:10:23;;;;;;;6.85;4.55;;;;;;;-1.49;100.00;100465.72;5105399;28;20051;-69
2024/02/13 01:12:50;;;;;;;6.95;4.50;;;;;;;-1.49;100.00;100466.56;5106078;28;20065;-68
2024/02/13 01:15:16;;;;;;;7.45;4.45;;;;;;;-1.70;100.00;100432.25;5105771;28;20024;-70
2024/02/13 01:17:42;;;;;;;7.38;4.57;;;;;;;-1.45;100.00;100470.63;5106002;28;20024;-69
2024/02/13 01:20:11;;;;;;;7.47;4.28;;;;;;;-1.42;100.00;100470.34;5104712;28;20036;-69
2024/02/13 01:22:37;;;;;;;7.85;4.60;;;;;;;-1.41;100.00;100471.19;5087764;28;20036;-73
2024/02/13 01:25:05;;;;;;;6.88;4.43;;;;;;;-1.55;100.00;100459.16;5105283;28;20024;-69
2024/02/13 01:27:30;;;;;;;6.38;4.60;;;;;;;-1.43;100.00;100479.22;5104411;28;20032;-69
2024/02/13 01:29:56;;;;;;;6.95;4.40;;;;;;;-1.45;100.00;100467.97;5104015;28;20046;-68
2024/02/13 01:32:21;;;;;;;6.68;4.10;;;;;;;-1.42;100.00;100475.63;5105880;28;20035;-68
2024/02/13 01:34:47;;;;;;;6.72;4.75;;;;;;;-1.55;100.00;100458.34;5105789;28;20020;-69
2024/02/13 01:37:12;;;;;;;5.95;3.75;;;;;;;-1.37;100.00;100482.31;5106611;28;20036;-69
2024/02/13 01:39:38;;;;;;;7.15;4.57;;;;;;;-1.34;100.00;100484.69;5105058;28;20059;-68
2024/02/13 01:42:04;;;;;;;6.78;4.50;;;;;;;-1.33;100.00;100483.72;5104681;28;20105;-70
2024/02/13 01:44:29;;;;;;;6.00;4.10;;;;;;;-1.33;100.00;100487.19;5105237;28;20047;-69
2024/02/13 01:46:55;;;;;;;6.65;4.40;;;;;;;-1.34;100.00;100487.34;5104232;28;20478;-70
2024/02/13 01:49:21;;;;;;;5.97;4.22;;;;;;;-1.34;100.00;100490.81;5099861;28;20024;-68
2024/02/13 01:51:48;;;;;;;6.68;4.50;;;;;;;-1.33;100.00;100489.84;5102029;28;20479;-72
2024/02/13 01:54:14;;;;;;;7.72;4.60;;;;;;;-1.42;100.00;100472.16;5105082;28;20077;-70
2024/02/13 01:56:41;;;;;;;7.47;4.22;;;;;;;-1.35;100.00;100494.44;5106732;28;20028;-67
2024/02/13 01:59:08;;;;;;;7.43;4.53;;;;;;;-1.36;100.00;100499.81;5071912;28;20036;-69
2024/02/13 02:01:35;;;;;;;6.75;4.50;;;;;;;-1.47;100.00;100483.09;5110381;28;20044;-68
2024/02/13 02:04:05;;;;;;;6.38;4.10;;;;;;;-1.42;100.00;100498.56;5108929;28;20056;-67
2024/02/13 02:06:30;;;;;;;6.60;4.35;;;;;;;-1.43;100.00;100499.50;5108918;28;20031;-67
2024/02/13 02:08:56;;;;;;;9.45;4.38;;;;;;;-1.46;100.00;100500.63;5109066;28;20055;-66
2024/02/13 02:11:23;;;;;;;7.68;4.38;;;;;;;-1.49;100.00;100506.16;5108936;28;20027;-69
2024/02/13 02:13:49;;;;;;;6.53;4.28;;;;;;;-1.48;100.00;100515.72;5109414;28;20024;-67
2024/02/13 02:16:15;;;;;;;5.95;4.57;;;;;;;-1.48;100.00;100507.81;5090870;28;20056;-68
2024/02/13 02:18:40;;;;;;;7.13;4.20;;;;;;;-1.54;100.00;100499.56;5108907;28;20031;-68
2024/02/13 02:21:07;;;;;;;8.45;5.18;;;;;;;-1.48;100.00;100502.53;5107717;28;20552;-68
2024/02/13 02:23:34;;;;;;;6.50;4.38;;;;;;;-1.49;100.00;100506.16;5108173;28;20028;-68
2024/02/13 02:26:02;;;;;;;6.68;4.55;;;;;;;-1.51;100.00;100505.44;5108898;28;20028;-67
2024/02/13 02:28:28;;;;;;;7.07;4.50;;;;;;;-1.52;100.00;100498.50;5107977;28;20066;-67
2024/02/13 02:31:00;;;;;;;6.47;4.32;;;;;;;-1.52;100.00;100498.50;5108108;28;20063;-68
2024/02/13 02:33:25;;;;;;;5.82;4.43;;;;;;;-1.52;100.00;100506.41;5108031;28;20024;-68
2024/02/13 02:35:51;;;;;;;8.05;4.65;;;;;;;-1.52;100.00;100501.13;5091550;28;20074;-69
2024/02/13 02:38:16;;;;;;;7.47;4.40;;;;;;;-1.52;100.00;100509.03;5108758;28;20052;-68
2024/02/13 02:40:43;;;;;;;6.55;4.68;;;;;;;-1.53;100.00;100512.63;5107957;28;20077;-67
2024/02/13 02:43:09;;;;;;;6.18;4.20;;;;;;;-1.62;100.00;100497.59;5108302;28;20036;-67
2024/02/13 02:45:35;;;;;;;7.22;4.90;;;;;;;-1.82;100.00;100467.59;5086030;28;20071;-68
2024/02/13 02:48:00;;;;;;;6.88;4.63;;;;;;;-1.59;100.00;100513.16;5102260;28;20044;-68
2024/02/13 02:50:25;;;;;;;7.25;4.45;;;;;;;-1.59;100.00;100523.72;5107522;28;20047;-68
2024/02/13 02:52:54;;;;;;;6.03;4.53;;;;;;;-1.58;100.00;100519.28;5112085;28;20036;-67
2024/02/13 02:55:21;;;;;;;6.45;4.20;;;;;;;-1.56;100.00;100525.25;5129016;28;20416;-68
2024/02/13 02:57:47;;;;;;;9.13;4.80;;;;;;;-1.54;100.00;100533.88;5129353;28;20027;-67
2024/02/13 03:00:14;;;;;;;7.03;4.55;;;;;;;-1.59;100.00;100526.34;5128545;28;20041;-68
2024/02/13 03:02:40;;;;;;;8.43;4.68;;;;;;;-1.49;100.00;100534.31;5128197;28;20023;-67
2024/02/13 03:05:08;;;;;;;6.80;4.55;;;;;;;-1.47;100.00;100541.16;5129214;28;20020;-68
2024/02/13 03:07:34;;;;;;;7.00;4.57;;;;;;;-1.66;100.00;100499.66;5129952;28;20030;-68
2024/02/13 03:10:00;;;;;;;7.28;4.78;;;;;;;-1.42;100.00;100538.13;5111135;28;20031;-68
2024/02/13 03:12:26;;;;;;;7.13;4.65;;;;;;;-1.44;100.00;100540.88;5126790;28;20027;-68
2024/02/13 03:14:52;;;;;;;6.88;4.38;;;;;;;-1.42;100.00;100538.97;5127756;28;20104;-68
2024/02/13 03:17:18;;;;;;;7.95;5.22;;;;;;;-1.46;100.00;100539.34;5111365;28;20035;-67
2024/02/13 03:19:44;;;;;;;6.45;4.13;;;;;;;-1.43;100.00;100541.72;5127918;28;20035;-67
2024/02/13 03:22:10;;;;;;;6.53;4.35;;;;;;;-1.44;100.00;100543.53;5128179;28;20031;-68
2024/02/13 03:24:35;;;;;;;5.53;4.22;;;;;;;-1.57;100.00;100526.22;5127357;28;20390;-67
2024/02/13 03:27:02;;;;;;;6.72;4.07;;;;;;;-1.43;100.00;100553.09;5128449;28;20027;-68
2024/02/13 03:29:28;;;;;;;8.13;4.70;;;;;;;-1.56;100.00;100525.25;5129111;28;20087;-68
2024/02/13 03:31:54;;;;;;;8.23;4.95;;;;;;;-1.43;100.00;100553.09;5128472;28;20038;-67
2024/02/13 03:34:20;;;;;;;7.38;4.25;;;;;;;-1.57;100.00;100528.84;5162621;27;20098;-68
2024/02/13 03:36:46;;;;;;;6.90;4.63;;;;;;;-1.40;100.00;100557.31;5128162;28;20031;-68
2024/02/13 03:39:12;;;;;;;5.93;4.20;;;;;;;-1.37;100.00;100559.69;5128462;28;20104;-69
2024/02/13 03:41:47;;;;;;;7.47;4.82;;;;;;;-1.36;100.00;100565.78;5127795;28;20083;-68
2024/02/13 03:44:12;;;;;;;;;;;;;;;-1.40;100.00;100577.59;5127715;28;20069;-68
2024/02/13 03:46:39;;;;;;;7.20;4.38;;;;;;;-1.45;100.00;100576.16;5144632;27;20005;-70
2024/02/13 03:49:05;;;;;;;7.25;4.38;;;;;;;-1.45;100.00;100562.97;5129133;28;20012;-68
2024/02/13 03:51:31;;;;;;;5.60;4.00;;;;;;;-1.38;100.00;100592.34;5128878;28;20042;-68
2024/02/13 03:53:56;;;;;;;7.07;4.18;;;;;;;-1.37;100.00;100590.53;5127778;28;20015;-68
2024/02/13 03:56:22;;;;;;;5.88;3.50;;;;;;;-1.34;100.00;100595.56;5124102;28;20054;-68
2024/02/13 03:58:48;;;;;;;5.78;3.78;;;;;;;-1.30;100.00;100594.31;5120821;28;20068;-68
2024/02/13 04:01:14;;;;;;;4.85;3.20;;;;;;;-1.28;100.00;100600.31;5133401;27;20036;-68
2024/02/13 04:03:39;;;;;;;5.75;3.55;;;;;;;-1.26;100.00;100598.38;5125358;28;20354;-68
2024/02/13 04:06:08;;;;;;;5.10;3.25;;;;;;;-1.35;100.00;100585.97;5126747;28;20701;-69
2024/02/13 04:08:34;;;;;;;5.13;3.35;;;;;;;-1.25;100.00;100603.53;5109730;28;20031;-68
2024/02/13 04:11:00;;;;;;;5.43;3.50;;;;;;;-1.26;100.00;100598.38;5127358;28;20038;-67
2024/02/13 04:13:26;;;;;;;6.00;3.53;;;;;;;-1.32;100.00;100596.28;5125833;28;20027;-68
2024/02/13 04:15:51;;;;;;;5.90;3.58;;;;;;;-1.29;100.00;100596.00;5126154;28;20038;-67
2024/02/13 04:18:17;;;;;;;6.38;3.67;;;;;;;-1.47;100.00;100566.69;5127091;28;20031;-66
2024/02/13 04:20:42;;;;;;;6.95;4.07;;;;;;;-1.29;100.00;100593.34;5125397;28;20058;-68
2024/02/13 04:23:08;;;;;;;5.55;3.60;;;;;;;-1.32;100.00;100591.00;5125696;28;20051;-67
2024/02/13 04:25:35;;;;;;;6.38;3.97;;;;;;;-1.33;100.00;100590.13;5126346;28;20036;-68
2024/02/13 04:28:00;;;;;;;6.22;3.90;;;;;;;-1.40;100.00;100588.97;5127187;27;20031;-67
2024/02/13 04:30:26;;;;;;;9.73;3.97;;;;;;;-1.42;100.00;100583.00;5126783;28;20028;-71
2024/02/13 04:32:51;;;;;;;6.13;4.10;;;;;;;-1.46;100.00;100590.34;5127911;28;20042;-67
2024/02/13 04:35:17;;;;;;;6.55;3.90;;;;;;;-1.50;100.00;100586.25;5126611;28;20525;-69
2024/02/13 04:37:44;;;;;;;5.50;4.13;;;;;;;-1.57;100.00;100581.63;5126700;28;20047;-70
2024/02/13 04:40:10;;;;;;;7.93;4.32;;;;;;;-1.56;100.00;100592.03;5126767;28;20135;-68
2024/02/13 04:42:36;;;;;;;7.20;4.13;;;;;;;-1.57;100.00;100592.16;5126873;27;20063;-68
2024/02/13 04:45:03;;;;;;;6.93;4.22;;;;;;;-1.63;100.00;100588.22;5145235;27;20050;-68
2024/02/13 04:47:29;;;;;;;5.93;3.90;;;;;;;-1.88;100.00;100567.47;5144320;27;20095;-70
2024/02/13 04:50:01;;;;;;;6.15;4.25;;;;;;;-1.83;100.00;100568.75;5141095;27;20042;-67
2024/02/13 04:52:27;;;;;;;5.38;4.03;;;;;;;-1.82;100.00;100582.78;5123661;27;20079;-68
2024/02/13 04:54:53;;;;;;;8.25;4.75;;;;;;;-1.88;100.00;100578.84;5115466;28;20053;-68
2024/02/13 04:57:19;;;;;;;6.50;4.57;;;;;;;-1.91;100.00;100571.19;5125210;28;20065;-70
2024/02/13 04:59:48;;;;;;;6.38;4.25;;;;;;;-2.01;100.00;100567.63;5108605;28;20037;-70
2024/02/13 05:02:20;;;;;;;6.55;4.72;;;;;;;-2.13;100.00;100570.28;5124960;28;20051;-69
2024/02/13 05:07:31;;;;;;;8.13;4.68;;;;;;;-2.34;100.00;100568.53;5125708;28;20120;-68
2024/02/13 05:09:59;;;;;;;7.63;5.05;;;;;;;-2.69;100.00;100528.19;5125354;28;20031;-68
2024/02/13 05:12:25;;;;;;;9.57;5.40;;;;;;;-2.47;100.00;100579.19;5122137;28;20023;-69
2024/02/13 05:14:52;;;;;;;8.68;5.10;;;;;;;-2.56;100.00;100572.00;5124281;28;20035;-68
2024/02/13 05:17:20;;;;;;;6.32;4.78;;;;;;;-2.68;100.00;100579.94;5127682;28;20051;-66
2024/02/13 05:19:49;;;;;;;7.47;5.00;;;;;;;-2.74;100.00;100600.63;5119809;28;20020;-67
2024/02/13 05:22:15;;;;;;;6.70;4.57;;;;;;;-2.83;100.00;100608.28;5109722;28;20028;-69
2024/02/13 05:24:41;;;;;;;6.32;5.30;;;;;;;-2.88;100.00;100617.47;5107086;28;20077;-69
2024/02/13 05:27:08;;;;;;;7.22;5.50;;;;;;;-2.93;100.00;100617.00;5109138;28;20088;-68
2024/02/13 05:29:38;;;;;;;6.60;4.78;;;;;;;-2.98;100.00;100625.25;5091097;28;20529;-69
2024/02/13 05:32:07;;;;;;;7.95;4.95;;;;;;;-2.99;100.00;100620.91;5106730;28;20019;-66
2024/02/13 05:34:34;;;;;;;6.05;4.30;;;;;;;-2.99;100.00;100604.28;5108315;28;20099;-66
2024/02/13 05:37:01;;;;;;;7.13;5.18;;;;;;;-3.20;100.00;100589.19;5117354;28;20085;-68
2024/02/13 05:39:30;;;;;;;8.00;4.95;;;;;;;-3.07;100.00;100616.25;5121184;28;20139;-69
2024/02/13 05:41:56;;;;;;;8.32;5.32;;;;;;;-3.16;100.00;100614.31;5120337;28;20027;-67
2024/02/13 05:44:23;;;;;;;8.65;4.82;;;;;;;-3.05;100.00;100618.75;5122741;28;20034;-69
2024/02/13 05:46:48;;;;;;;8.57;5.30;;;;;;;-3.19;100.00;100600.53;5127187;28;20098;-67
2024/02/13 05:49:14;;;;;;;9.73;4.95;;;;;;;-3.00;100.00;100626.31;5123807;28;20051;-66
2024/02/13 05:51:39;;;;;;;7.18;5.03;;;;;;;-3.04;100.00;100615.19;5122875;28;20042;-70
2024/02/13 05:54:06;;;;;;;6.85;4.80;;;;;;;-2.94;100.00;100624.06;5129414;28;20439;-69
2024/02/13 05:56:35;;;;;;;8.48;5.00;;;;;;;-2.90;100.00;100637.81;5129959;28;20023;-67
2024/02/13 05:59:03;;;;;;;7.00;5.07;;;;;;;-2.92;100.00;100623.94;5129571;28;20055;-66
2024/02/13 06:01:31;;;;;;;7.72;5.13;;;;;;;-2.84;100.00;100640.00;5132362;28;20031;-66
2024/02/13 06:04:01;;;;;;;7.03;4.57;;;;;;;-2.97;100.00;100621.66;5134967;27;20031;-69
2024/02/13 06:06:27;;;;;;;6.97;4.82;;;;;;;-2.99;100.00;100610.41;5127769;28;20020;-66
2024/02/13 06:08:53;;;;;;;8.30;5.15;;;;;;;-2.90;100.00;100628.13;5120439;28;20020;-67
2024/02/13 06:11:19;;;;;;;8.10;4.63;;;;;;;-2.77;100.00;100657.00;5119666;28;20061;-68
2024/02/13 06:13:45;;;;;;;6.80;5.03;;;;;;;-2.77;100.00;100657.00;5118133;28;20024;-68
2024/02/13 06:16:12;;;;;;;8.50;4.68;;;;;;;-2.76;100.00;100648.13;5116936;28;20087;-68
2024/02/13 06:18:37;;;;;;;6.85;4.93;;;;;;;-2.76;100.00;100657.84;5123445;28;20053;-70
2024/02/13 06:21:04;;;;;;;8.40;5.05;;;;;;;-2.75;100.00;100654.25;5124187;28;20027;-67
2024/02/13 06:23:30;;;;;;;7.93;4.90;;;;;;;-2.73;100.00;100655.81;5126034;28;20125;-68
2024/02/13 06:25:55;;;;;;;7.80;5.70;;;;;;;-2.72;100.00;100656.63;5126315;28;20024;-68
2024/02/13 06:28:21;;;;;;;8.43;5.72;;;;;;;-2.68;100.00;100665.97;5125216;28;20031;-68
2024/02/13 06:30:47;;;;;;;9.95;5.95;;;;;;;-2.66;100.00;100667.53;5127073;28;20116;-68
2024/02/13 06:33:13;;;;;;;10.32;7.20;;;;;;;-2.62;100.00;100671.66;5110138;28;20031;-69
2024/02/13 06:35:42;;;;;;;9.00;6.18;;;;;;;-2.56;100.00;100677.38;5129824;28;20034;-68
2024/02/13 06:38:08;;;;;;;9.50;6.80;;;;;;;-2.59;100.00;100662.66;5130536;28;20063;-68
2024/02/13 06:40:34;;;;;;;12.68;9.38;;;;;;;-2.58;100.00;100663.47;5132119;28;20218;-66
2024/02/13 06:42:59;;;;;;;13.15;9.50;;;;;;;-2.48;100.00;100681.13;5130657;28;20028;-67
2024/02/13 06:45:27;;;;;;;12.38;9.13;;;;;;;-2.48;100.00;100683.75;5131669;28;20027;-68
2024/02/13 06:47:53;;;;;;;12.80;8.95;;;;;;;-2.44;100.00;100687.00;5131154;28;20027;-67
2024/02/13 06:50:19;;;;;;;12.52;8.68;;;;;;;-2.46;100.00;100689.72;5118381;28;20095;-67
2024/02/13 06:52:51;;;;;;;10.55;7.35;;;;;;;-2.47;100.00;100692.50;5126324;28;20123;-66
2024/02/13 06:55:18;;;;;;;9.38;6.50;;;;;;;-2.48;100.00;100691.66;5111079;28;20028;-66
2024/02/13 06:57:44;;;;;;;9.10;5.78;;;;;;;-2.39;100.00;100693.56;5113226;28;20023;-66
2024/02/13 07:00:11;;;;;;;9.00;6.35;;;;;;;-2.38;100.00;100697.88;5128181;28;20036;-67
2024/02/13 07:02:37;;;;;;;8.68;5.63;;;;;;;-2.33;100.00;100704.59;5129493;28;20216;-68
2024/02/13 07:05:04;;;;;;;8.18;5.55;;;;;;;-2.41;100.00;100692.03;5128872;28;20536;-67
2024/02/13 07:07:29;;;;;;;9.50;6.35;;;;;;;-2.32;100.00;100699.19;5129093;28;20069;-65
2024/02/13 07:09:55;;;;;;;10.38;5.93;;;;;;;-2.31;100.00;100697.41;5124038;28;20035;-67
2024/02/13 07:12:20;;;;;;;9.07;6.35;;;;;;;-2.21;100.00;100701.03;5121762;28;20039;-69
2024/02/13 07:14:47;;;;;;;10.73;6.43;;;;;;;-2.16;100.00;100701.47;5122921;28;20024;-68
2024/02/13 07:17:13;;;;;;;7.53;5.68;;;;;;;-2.11;100.00;100706.41;5122566;28;20041;-68
2024/02/13 07:19:40;;;;;;;8.40;5.68;;;;;;;-2.39;100.00;100683.00;5123259;28;20028;-68
2024/02/13 07:22:07;;;;;;;9.63;6.80;;;;;;;-2.30;100.00;100691.19;5124202;28;20022;-69
2024/02/13 07:24:34;;;;;;;11.93;6.82;;;;;;;-2.12;100.00;100705.53;5123291;28;20024;-69
2024/02/13 07:27:01;;;;;;;8.73;5.80;;;;;;;-2.05;100.00;100712.03;5123720;28;20038;-69
2024/02/13 07:29:26;;;;;;;9.63;5.85;;;;;;;-2.05;100.00;100713.81;5122240;28;20050;-67
2024/02/13 07:31:52;;;;;;;9.10;5.82;;;;;;;-1.90;100.00;100720.53;5120247;28;20070;-70
2024/02/13 07:34:20;;;;;;;9.52;6.57;;;;;;;-1.87;100.00;100722.94;5119656;28;20390;-67
2024/02/13 07:36:46;;;;;;;8.82;6.07;;;;;;;-1.82;100.00;100719.91;5119405;28;20267;-69
2024/02/13 07:39:11;;;;;;;9.55;5.80;;;;;;;-1.83;100.00;100719.09;5122945;28;20112;-73
2024/02/13 07:41:37;;;;;;;9.27;5.75;;;;;;;-1.79;100.00;100720.50;5123198;28;20028;-68
2024/02/13 07:44:03;;;;;;;9.07;5.82;;;;;;;-1.67;100.00;100713.44;5121084;28;20023;-67
2024/02/13 07:46:29;;;;;;;8.52;5.65;;;;;;;-1.63;100.00;100706.94;5120581;28;20028;-70
2024/02/13 07:48:55;;;;;;;7.60;5.43;;;;;;;-1.83;100.00;100668.97;5119853;28;20030;-67
2024/02/13 07:51:21;;;;;;;8.40;5.50;;;;;;;-1.48;100.00;100712.81;5118094;28;20030;-68
2024/02/13 07:53:46;;;;;;;9.68;5.65;;;;;;;-1.53;100.00;100721.06;5118101;28;20020;-71
2024/02/13 07:56:12;;;;;;;7.32;5.25;;;;;;;-1.61;100.00;100712.94;5118382;28;20032;-67
2024/02/13 07:58:41;;;;;;;9.68;5.90;;;;;;;-1.57;100.00;100698.53;5117369;28;20027;-67
2024/02/13 08:01:09;;;;;;;8.73;6.05;;;;;;;-1.37;100.00;100719.84;5118530;28;20462;-70
2024/02/13 08:03:36;;;;;;;9.07;6.28;;;;;;;-1.28;100.00;100725.22;5118515;27;20423;-66
2024/02/13 08:06:01;;;;;;;9.95;6.07;;;;;;;-1.23;100.00;100724.84;5116979;28;20042;-67
2024/02/13 08:08:28;;;;;;;10.23;6.63;;;;;;;-1.24;100.00;100715.25;5118454;28;20103;-68
2024/02/13 08:10:54;;;;;;;10.88;6.18;;;;;;;-1.28;100.00;100724.41;5117538;28;20459;-67
2024/02/13 08:13:20;;;;;;;9.40;6.57;;;;;;;-1.21;100.00;100720.28;5116987;28;20091;-67
2024/02/13 08:15:47;;;;;;;10.55;6.57;;;;;;;-1.17;100.00;100720.88;5116946;28;20069;-67
2024/02/13 08:18:14;;;;;;;9.43;6.45;;;;;;;-1.19;100.00;100710.44;5118753;28;20057;-69
2024/02/13 08:20:40;;;;;;;10.80;7.07;;;;;;;-1.10;100.00;100716.75;5133959;27;20036;-67
2024/02/13 08:23:05;;;;;;;10.60;6.40;;;;;;;-1.06;100.00;100708.47;5120040;28;20020;-67
2024/02/13 08:25:31;;;;;;;8.38;5.90;;;;;;;-1.09;100.00;100702.59;5122916;28;20032;-69
2024/02/13 08:27:59;;;;;;;9.80;5.70;;;;;;;-0.98;100.00;100715.75;5105908;28;20027;-69
2024/02/13 08:30:26;;;;;;;7.57;5.70;;;;;;;-0.98;100.00;100692.81;5106374;28;20027;-70
2024/02/13 08:32:51;;;;;;;9.93;5.80;;;;;;;-0.81;100.00;100711.72;5125621;28;20015;-69
2024/02/13 08:35:19;;;;;;;7.95;5.32;;;;;;;-0.79;100.00;100699.22;5126335;28;20016;-69
2024/02/13 08:37:44;;;;;;;7.28;5.20;;;;;;;-0.66;100.00;100720.16;5125845;28;20059;-68
2024/02/13 08:40:14;;;;;;;9.70;6.07;;;;;;;-0.67;100.00;100715.84;5123264;28;20050;-69
2024/02/13 08:42:39;;;;;;;7.40;5.40;;;;;;;-0.61;100.00;100721.44;5124720;28;20033;-68
2024/02/13 08:45:05;;;;;;;7.32;6.05;;;;;;;-0.65;100.00;100709.47;5126855;28;20088;-68
2024/02/13 08:47:31;;;;;;;6.85;5.50;;;;;;;-0.63;100.00;100719.88;5145664;27;20031;-68
2024/02/13 08:49:57;;;;;;;8.15;5.82;;;;;;;-0.68;100.00;100716.81;5121267;28;20070;-68
2024/02/13 08:52:22;;;;;;;9.55;6.13;;;;;;;-0.67;100.00;100719.31;5116174;28;20024;-67
2024/02/13 08:54:48;;;;;;;8.88;5.93;;;;;;;-0.72;100.00;100717.06;5116074;28;20031;-68
2024/02/13 08:57:14;;;;;;;8.68;5.70;;;;;;;-1.13;100.00;100633.34;5115891;28;20035;-68
2024/02/13 08:59:43;;;;;;;9.80;6.18;;;;;;;-0.59;100.00;100711.59;5116989;28;20097;-68
2024/02/13 09:02:08;;;;;;;10.48;5.70;;;;;;;-0.59;100.00;100716.88;5116283;28;20114;-68
2024/02/13 09:04:35;;;;;;;7.63;5.63;;;;;;;-0.37;100.00;100710.59;5117524;28;20047;-69
2024/02/13 09:07:01;;;;;;;7.47;5.47;;;;;;;-0.34;100.00;100696.28;5116432;28;20107;-68
2024/02/13 09:09:27;;;;;;;8.40;5.90;;;;;;;-0.21;100.00;100704.00;5113514;28;20055;-68
2024/02/13 09:11:52;;;;;;;7.63;6.03;;;;;;;-0.16;100.00;100707.94;5117133;28;20059;-68
2024/02/13 09:14:18;;;;;;;8.02;5.95;;;;;;;-0.06;100.00;100702.69;5117180;28;20023;-68
2024/02/13 09:16:44;;;;;;;8.90;6.43;;;;;;;0.08;100.00;100704.97;5117021;28;20114;-68
2024/02/13 09:19:09;;;;;;;11.55;6.78;;;;;;;0.06;100.00;100714.00;5117099;28;20383;-68
2024/02/13 09:21:35;;;;;;;12.02;6.75;;;;;;;0.11;100.00;100709.16;5116749;28;20039;-69
2024/02/13 09:24:00;;;;;;;14.77;8.02;;;;;;;0.08;100.00;100710.25;5115615;28;20032;-68
2024/02/13 09:26:26;;;;;;;12.55;7.45;;;;;;;0.10;100.00;100710.97;5117094;28;20085;-68
2024/02/13 09:28:52;;;;;;;16.63;7.90;;;;;;;0.23;100.00;100713.34;5119872;28;20036;-69
2024/02/13 09:31:18;;;;;;;12.95;8.23;;;;;;;0.20;100.00;100716.31;5127314;28;20040;-69
2024/02/13 09:33:45;;;;;;;17.20;8.05;;;;;;;0.33;100.00;100708.97;5126702;28;20016;-67
2024/02/13 09:36:11;;;;;;;10.82;7.50;;;;;;;-0.08;100.00;100662.31;5127412;28;20110;-69
2024/02/13 09:38:40;;;;;;;14.40;7.75;;;;;;;0.08;100.00;100680.31;5126958;28;20089;-68
2024/02/13 09:41:06;;;;;;;12.55;8.25;;;;;;;-0.06;100.00;100668.31;5127372;28;20027;-69
2024/02/13 09:43:31;;;;;;;12.05;8.25;;;;;;;-0.09;100.00;100677.34;5127068;28;20027;-67
2024/02/13 09:45:57;;;;;;;13.70;9.02;;;;;;;0.01;100.00;100679.19;5128099;28;20027;-68
2024/02/13 09:48:25;;;;;;;15.85;9.23;;;;;;;-0.11;100.00;100676.63;5112051;28;20069;-68
2024/02/13 09:50:55;;;;;;;16.05;9.40;;;;;;;0.11;100.00;100678.25;5122417;28;20027;-68
2024/02/13 09:53:26;;;;;;;19.10;9.43;;;;;;;0.59;100.00;100681.97;5128578;28;20020;-68
2024/02/13 09:55:57;;;;;;;16.48;9.20;;;;;;;0.82;100.00;100695.78;5128638;28;20031;-68
2024/02/13 09:58:23;;;;;;;15.65;8.70;;;;;;;1.04;100.00;100713.22;5129882;28;20107;-67
2024/02/13 10:00:50;;;;;;;12.43;9.07;;;;;;;1.26;100.00;100726.19;5118025;28;20015;-68
2024/02/13 10:03:16;;;;;;;14.00;9.63;;;;;;;1.36;100.00;100699.69;5126435;28;20095;-68
2024/02/13 10:05:42;;;;;;;17.23;9.55;;;;;;;1.64;100.00;100719.97;5125466;28;20050;-68
2024/02/13 10:08:08;;;;;;;12.60;8.77;;;;;;;1.46;100.00;100705.78;5124807;28;20121;-68
2024/02/13 10:10:34;;;;;;;16.10;8.98;;;;;;;1.60;100.00;100720.41;5124440;28;20085;-68
2024/02/13 10:13:00;;;;;;;15.93;9.40;;;;;;;1.63;100.00;100734.22;5123937;28;20023;-68
2024/02/13 10:15:45;;;;;;;12.38;8.85;;;;;;;1.78;100.00;100744.38;5119809;28;20030;-68
2024/02/13 10:18:13;;;;;;;13.20;8.40;;;;;;;1.82;100.00;100743.09;5121996;28;20045;-69
2024/02/13 10:20:43;;;;;;;18.38;8.70;;;;;;;1.95;100.00;100742.78;5121063;28;20043;-68
2024/02/13 10:23:13;;;;;;;13.35;8.48;;;;;;;2.10;100.00;100749.31;5125978;28;20030;-68
2024/02/13 10:25:42;;;;;;;12.93;8.05;;;;;;;2.16;100.00;100737.28;5124531;28;20440;-69
2024/02/13 10:28:11;;;;;;;13.13;8.10;;;;;;;2.18;100.00;100735.31;5122077;28;20415;-67
2024/02/13 10:30:37;;;;;;;12.23;7.55;;;;;;;2.08;100.00;100735.34;5121395;28;20019;-67
2024/02/13 10:33:07;;;;;;;10.50;7.82;;;;;;;2.00;100.00;100735.25;5121386;27;20496;-66
2024/02/13 10:35:33;;;;;;;16.13;8.60;;;;;;;2.07;100.00;100720.41;5119552;28;20023;-66
2024/02/13 10:38:03;;;;;;;11.40;8.23;;;;;;;2.05;100.00;100719.69;5120363;28;20071;-67
2024/02/13 10:40:29;;;;;;;13.30;7.97;;;;;;;1.85;100.00;100693.25;5120983;28;20023;-67
2024/02/13 10:42:56;;;;;;;10.65;8.02;;;;;;;1.80;100.00;100700.81;5121374;28;20047;-68
2024/02/13 10:45:32;;;;;;;11.63;8.05;;;;;;;1.74;100.00;100708.50;5121814;28;20024;-68
2024/02/13 10:48:06;;;;;;;13.82;8.25;;;;;;;1.56;100.00;100697.81;5120779;28;20027;-68
2024/02/13 10:50:34;;;;;;;10.73;8.57;;;;;;;1.48;100.00;100697.69;5121216;28;20039;-69
2024/02/13 10:53:03;;;;;;;15.68;8.98;;;;;;;1.61;100.00;100703.50;5120710;28;20543;-68
2024/02/13 10:55:30;;;;;;;17.45;9.45;;;;;;;1.45;100.00;100687.34;5120412;28;20026;-68
2024/02/13 10:57:58;;;;;;;17.95;8.73;;;;;;;1.54;100.00;100695.31;5127015;28;20095;-69
2024/02/13 11:00:25;;;;;;;19.58;9.32;;;;;;;1.52;100.00;100701.72;5125108;28;20019;-68
2024/02/13 11:02:55;;;;;;;17.42;9.40;;;;;;;1.61;100.00;100700.88;5124524;28;20047;-68
2024/02/13 11:05:25;;;;;;;15.55;9.02;;;;;;;1.82;100.00;100698.88;5127245;28;20106;-68
2024/02/13 11:07:51;;;;;;;15.32;8.32;;;;;;;1.75;100.00;100697.75;5126898;28;20027;-69
2024/02/13 11:10:18;;;;;;;14.20;9.40;;;;;;;1.57;100.00;100695.00;5127778;28;20031;-68
2024/02/13 11:12:45;;;;;;;22.27;12.65;;;;;;;1.74;100.00;100701.38;5125590;28;20027;-69
2024/02/13 11:15:16;;;;;;;18.75;10.85;;;;;;;1.67;100.00;100675.59;5109026;28;20030;-69
2024/02/13 11:17:54;;;;;;;20.15;11.48;;;;;;;1.80;100.00;100699.97;5125640;28;20023;-69